sensor_id;sensor_type;location;lat;lon;timestamp;pressure;altitude;pressure_sealevel;temperature;humidity
86523;BME280;77164;48.402;10.596;2024-03-23T00:52:53;95880.09;;;6.93;73.91
86523;BME280;77164;48.402;10.596;2024-03-23T00:55:20;95871.78;;;6.89;73.90
86523;BME280;77164;48.402;10.596;2024-03-23T00:57:47;95865.38;;;6.85;74.09
86523;BME280;77164;48.402;10.596;2024-03-23T01:00:14;95872.34;;;6.82;74.53
86523;BME280;77164;48.402;10.596;2024-03-23T01:02:42;95868.81;;;6.82;75.20
86523;BME280;77164;48.402;10.596;2024-03-23T01:05:09;95870.75;;;6.81;73.82
86523;BME280;77164;48.402;10.596;2024-03-23T01:07:36;95881.22;;;6.79;74.93
86523;BME280;77164;48.402;10.596;2024-03-23T01:10:03;95876.66;;;6.71;74.89
86523;BME280;77164;48.402;10.596;2024-03-23T01:12:30;95871.72;;;6.65;74.62
86523;BME280;77164;48.402;10.596;2024-03-23T01:15:00;95864.09;;;6.58;74.60
86523;BME280;77164;48.402;10.596;2024-03-23T01:17:27;95866.38;;;6.56;74.97
86523;BME280;77164;48.402;10.596;2024-03-23T01:19:54;95867.84;;;6.53;74.71
86523;BME280;77164;48.402;10.596;2024-03-23T01:22:21;95859.75;;;6.57;74.65
86523;BME280;77164;48.402;10.596;2024-03-23T01:24:48;95852.38;;;6.57;75.00
86523;BME280;77164;48.402;10.596;2024-03-23T01:27:15;95850.44;;;6.58;74.58
86523;BME280;77164;48.402;10.596;2024-03-23T01:29:42;95847.03;;;6.61;74.39
86523;BME280;77164;48.402;10.596;2024-03-23T01:32:11;95838.84;;;6.61;74.25
86523;BME280;77164;48.402;10.596;2024-03-23T01:34:38;95834.53;;;6.60;74.46
86523;BME280;77164;48.402;10.596;2024-03-23T01:37:05;95841.59;;;6.61;74.50
86523;BME280;77164;48.402;10.596;2024-03-23T01:39:32;95832.59;;;6.60;74.46
86523;BME280;77164;48.402;10.596;2024-03-23T01:41:59;95827.47;;;6.59;74.16
86523;BME280;77164;48.402;10.596;2024-03-23T01:44:26;95832.09;;;6.58;74.88
86523;BME280;77164;48.402;10.596;2024-03-23T01:46:53;95824.59;;;6.55;74.62
86523;BME280;77164;48.402;10.596;2024-03-23T01:49:21;95826.88;;;6.53;75.26
86523;BME280;77164;48.402;10.596;2024-03-23T01:51:48;95826.78;;;6.50;75.24
86523;BME280;77164;48.402;10.596;2024-03-23T01:54:15;95823.13;;;6.46;75.00
86523;BME280;77164;48.402;10.596;2024-03-23T01:56:45;95818.34;;;6.43;74.77
86523;BME280;77164;48.402;10.596;2024-03-23T01:59:11;95820.13;;;6.39;74.95
86523;BME280;77164;48.402;10.596;2024-03-23T02:01:39;95804.78;;;6.34;74.63
86523;BME280;77164;48.402;10.596;2024-03-23T02:04:06;95805.94;;;6.33;75.17
86523;BME280;77164;48.402;10.596;2024-03-23T02:06:33;95797.28;;;6.31;75.90
86523;BME280;77164;48.402;10.596;2024-03-23T02:09:00;95794.06;;;6.29;75.45
86523;BME280;77164;48.402;10.596;2024-03-23T02:11:27;95791.69;;;6.27;75.61
86523;BME280;77164;48.402;10.596;2024-03-23T02:13:54;95788.16;;;6.27;75.00
86523;BME280;77164;48.402;10.596;2024-03-23T02:16:24;95785.78;;;6.25;75.04
86523;BME280;77164;48.402;10.596;2024-03-23T02:18:51;95781.47;;;6.24;75.62
86523;BME280;77164;48.402;10.596;2024-03-23T02:21:21;95780.66;;;6.24;75.97
86523;BME280;77164;48.402;10.596;2024-03-23T02:23:48;95771.69;;;6.23;74.83
86523;BME280;77164;48.402;10.596;2024-03-23T02:26:15;95774.84;;;6.25;74.84
86523;BME280;77164;48.402;10.596;2024-03-23T02:28:43;95767.47;;;6.26;75.80
86523;BME280;77164;48.402;10.596;2024-03-23T02:31:13;95771.00;;;6.26;75.45
86523;BME280;77164;48.402;10.596;2024-03-23T02:33:41;95766.56;;;6.22;75.45
86523;BME280;77164;48.402;10.596;2024-03-23T02:36:08;95762.25;;;6.21;75.24
86523;BME280;77164;48.402;10.596;2024-03-23T02:38:35;95757.56;;;6.21;75.39
86523;BME280;77164;48.402;10.596;2024-03-23T02:41:03;95757.22;;;6.23;75.27
86523;BME280;77164;48.402;10.596;2024-03-23T02:43:33;95757.22;;;6.23;75.21
86523;BME280;77164;48.402;10.596;2024-03-23T02:46:01;95745.63;;;6.26;76.00
86523;BME280;77164;48.402;10.596;2024-03-23T02:48:28;95742.09;;;6.25;75.02
86523;BME280;77164;48.402;10.596;2024-03-23T02:50:55;95744.84;;;6.25;75.81
86523;BME280;77164;48.402;10.596;2024-03-23T02:53:22;95739.81;;;6.27;76.02
86523;BME280;77164;48.402;10.596;2024-03-23T02:55:49;95741.09;;;6.30;75.91
86523;BME280;77164;48.402;10.596;2024-03-23T02:58:16;95735.41;;;6.35;75.99
86523;BME280;77164;48.402;10.596;2024-03-23T03:00:43;95731.66;;;6.40;75.85
86523;BME280;77164;48.402;10.596;2024-03-23T03:03:10;95728.00;;;6.48;76.08
86523;BME280;77164;48.402;10.596;2024-03-23T03:05:37;95723.56;;;6.55;75.04
86523;BME280;77164;48.402;10.596;2024-03-23T03:08:07;95719.59;;;6.65;75.29
86523;BME280;77164;48.402;10.596;2024-03-23T03:10:34;95714.78;;;6.74;75.29
86523;BME280;77164;48.402;10.596;2024-03-23T03:13:02;95712.63;;;6.68;75.46
86523;BME280;77164;48.402;10.596;2024-03-23T03:15:29;95707.06;;;6.88;75.26
86523;BME280;77164;48.402;10.596;2024-03-23T03:17:56;95706.22;;;7.00;74.58
86523;BME280;77164;48.402;10.596;2024-03-23T03:20:23;95692.31;;;7.05;74.37
86523;BME280;77164;48.402;10.596;2024-03-23T03:22:51;95685.81;;;7.10;74.64
86523;BME280;77164;48.402;10.596;2024-03-23T03:25:19;95679.41;;;7.18;74.79
86523;BME280;77164;48.402;10.596;2024-03-23T03:27:46;95676.88;;;7.25;74.50
86523;BME280;77164;48.402;10.596;2024-03-23T03:30:14;95682.19;;;7.34;74.26
86523;BME280;77164;48.402;10.596;2024-03-23T03:32:42;95677.72;;;7.41;74.96
86523;BME280;77164;48.402;10.596;2024-03-23T03:35:09;95679.88;;;7.48;74.80
86523;BME280;77164;48.402;10.596;2024-03-23T03:37:36;95682.09;;;7.58;73.88
86523;BME280;77164;48.402;10.596;2024-03-23T03:40:03;95669.84;;;7.68;74.52
86523;BME280;77164;48.402;10.596;2024-03-23T03:42:30;95677.88;;;7.76;74.73
86523;BME280;77164;48.402;10.596;2024-03-23T03:44:56;95677.38;;;7.87;74.77
86523;BME280;77164;48.402;10.596;2024-03-23T03:47:23;95668.97;;;7.95;74.34
86523;BME280;77164;48.402;10.596;2024-03-23T03:49:50;95656.63;;;8.01;74.30
86523;BME280;77164;48.402;10.596;2024-03-23T03:52:16;95647.00;;;8.08;73.88
86523;BME280;77164;48.402;10.596;2024-03-23T03:54:43;95636.56;;;8.13;74.32
86523;BME280;77164;48.402;10.596;2024-03-23T03:57:10;95633.56;;;8.18;74.20
86523;BME280;77164;48.402;10.596;2024-03-23T03:59:36;95642.66;;;8.22;74.69
86523;BME280;77164;48.402;10.596;2024-03-23T04:02:03;95647.78;;;8.24;74.23
86523;BME280;77164;48.402;10.596;2024-03-23T04:04:30;95642.03;;;8.29;74.51
86523;BME280;77164;48.402;10.596;2024-03-23T04:07:03;95640.16;;;8.33;74.55
86523;BME280;77164;48.402;10.596;2024-03-23T04:09:31;95631.63;;;8.34;74.62
86523;BME280;77164;48.402;10.596;2024-03-23T04:11:58;95632.53;;;8.39;74.48
86523;BME280;77164;48.402;10.596;2024-03-23T04:14:24;95632.59;;;8.42;74.13
86523;BME280;77164;48.402;10.596;2024-03-23T04:16:51;95624.81;;;8.44;74.80
86523;BME280;77164;48.402;10.596;2024-03-23T04:19:18;95618.63;;;8.47;74.42
86523;BME280;77164;48.402;10.596;2024-03-23T04:21:44;95614.44;;;8.53;74.30
86523;BME280;77164;48.402;10.596;2024-03-23T04:24:11;95622.31;;;8.55;74.63
86523;BME280;77164;48.402;10.596;2024-03-23T04:26:44;95610.56;;;8.54;74.16
86523;BME280;77164;48.402;10.596;2024-03-23T04:29:10;95608.19;;;8.53;74.95
86523;BME280;77164;48.402;10.596;2024-03-23T04:31:37;95608.97;;;8.53;74.89
86523;BME280;77164;48.402;10.596;2024-03-23T04:34:04;95608.53;;;8.51;74.33
86523;BME280;77164;48.402;10.596;2024-03-23T04:36:30;95604.94;;;8.47;75.05
86523;BME280;77164;48.402;10.596;2024-03-23T04:38:58;95604.16;;;8.47;74.97
86523;BME280;77164;48.402;10.596;2024-03-23T04:41:25;95601.75;;;8.45;74.31
86523;BME280;77164;48.402;10.596;2024-03-23T04:43:52;95614.09;;;8.55;74.22
86523;BME280;77164;48.402;10.596;2024-03-23T04:46:19;95599.56;;;8.70;74.53
86523;BME280;77164;48.402;10.596;2024-03-23T04:48:47;95589.72;;;8.85;74.09
86523;BME280;77164;48.402;10.596;2024-03-23T04:51:26;95596.25;;;9.00;73.90
86523;BME280;77164;48.402;10.596;2024-03-23T04:53:53;95600.53;;;9.16;73.60
86523;BME280;77164;48.402;10.596;2024-03-23T04:56:19;95600.72;;;9.27;73.58
86523;BME280;77164;48.402;10.596;2024-03-23T04:58:46;95593.88;;;9.37;73.48
86523;BME280;77164;48.402;10.596;2024-03-23T05:01:13;95584.53;;;9.41;73.31
86523;BME280;77164;48.402;10.596;2024-03-23T05:03:40;95582.28;;;9.47;73.45
86523;BME280;77164;48.402;10.596;2024-03-23T05:06:06;95579.22;;;9.52;73.10
86523;BME280;77164;48.402;10.596;2024-03-23T05:08:33;95579.31;;;9.56;73.44
86523;BME280;77164;48.402;10.596;2024-03-23T05:11:00;95576.25;;;9.61;73.11
86523;BME280;77164;48.402;10.596;2024-03-23T05:13:26;95563.03;;;9.66;73.04
86523;BME280;77164;48.402;10.596;2024-03-23T05:15:56;95552.91;;;9.70;73.12
86523;BME280;77164;48.402;10.596;2024-03-23T05:18:23;95537.59;;;9.69;73.09
86523;BME280;77164;48.402;10.596;2024-03-23T05:20:57;95533.28;;;9.68;72.93
86523;BME280;77164;48.402;10.596;2024-03-23T05:23:25;95534.00;;;9.65;73.10
86523;BME280;77164;48.402;10.596;2024-03-23T05:25:52;95522.47;;;9.56;73.30
86523;BME280;77164;48.402;10.596;2024-03-23T05:28:19;95510.59;;;9.48;73.56
86523;BME280;77164;48.402;10.596;2024-03-23T05:30:52;95509.66;;;9.41;74.00
86523;BME280;77164;48.402;10.596;2024-03-23T05:33:20;95507.25;;;9.36;73.89
86523;BME280;77164;48.402;10.596;2024-03-23T05:35:47;95510.69;;;9.33;73.60
86523;BME280;77164;48.402;10.596;2024-03-23T05:38:14;95507.13;;;9.29;73.42
86523;BME280;77164;48.402;10.596;2024-03-23T05:40:41;95503.53;;;9.25;73.75
86523;BME280;77164;48.402;10.596;2024-03-23T05:43:07;95487.06;;;9.25;73.73
86523;BME280;77164;48.402;10.596;2024-03-23T05:45:35;95499.16;;;9.24;73.41
86523;BME280;77164;48.402;10.596;2024-03-23T05:48:02;95482.00;;;9.27;73.63
86523;BME280;77164;48.402;10.596;2024-03-23T05:50:28;95480.09;;;9.31;73.13
86523;BME280;77164;48.402;10.596;2024-03-23T05:52:55;95476.72;;;9.37;73.11
86523;BME280;77164;48.402;10.596;2024-03-23T05:55:21;95483.91;;;9.45;72.85
86523;BME280;77164;48.402;10.596;2024-03-23T05:57:48;95480.91;;;9.54;73.18
86523;BME280;77164;48.402;10.596;2024-03-23T06:00:15;95477.53;;;9.64;72.54
86523;BME280;77164;48.402;10.596;2024-03-23T06:02:45;95476.59;;;9.80;72.28
86523;BME280;77164;48.402;10.596;2024-03-23T06:05:12;95466.25;;;9.96;72.39
86523;BME280;77164;48.402;10.596;2024-03-23T06:07:39;95473.59;;;10.15;72.19
86523;BME280;77164;48.402;10.596;2024-03-23T06:10:05;95470.75;;;10.34;71.45
86523;BME280;77164;48.402;10.596;2024-03-23T06:12:32;95460.78;;;10.52;71.37
86523;BME280;77164;48.402;10.596;2024-03-23T06:14:59;95459.75;;;10.68;71.23
86523;BME280;77164;48.402;10.596;2024-03-23T06:17:25;95458.72;;;10.79;70.94
86523;BME280;77164;48.402;10.596;2024-03-23T06:19:52;95455.28;;;10.89;70.82
86523;BME280;77164;48.402;10.596;2024-03-23T06:22:18;95448.31;;;10.99;70.62
86523;BME280;77164;48.402;10.596;2024-03-23T06:24:45;95447.59;;;11.06;70.46
86523;BME280;77164;48.402;10.596;2024-03-23T06:27:11;95446.91;;;11.12;70.21
86523;BME280;77164;48.402;10.596;2024-03-23T06:29:38;95451.66;;;11.19;70.37
86523;BME280;77164;48.402;10.596;2024-03-23T06:32:05;95457.22;;;11.26;70.08
86523;BME280;77164;48.402;10.596;2024-03-23T06:34:32;95452.97;;;11.32;70.24
86523;BME280;77164;48.402;10.596;2024-03-23T06:36:58;95465.19;;;11.35;70.05
86523;BME280;77164;48.402;10.596;2024-03-23T06:39:25;95468.00;;;11.42;70.22
86523;BME280;77164;48.402;10.596;2024-03-23T06:41:53;95464.88;;;11.43;70.22
86523;BME280;77164;48.402;10.596;2024-03-23T06:44:20;95454.66;;;11.44;70.36
86523;BME280;77164;48.402;10.596;2024-03-23T06:46:47;95466.06;;;11.46;70.58
86523;BME280;77164;48.402;10.596;2024-03-23T06:49:15;95475.13;;;11.50;70.48
86523;BME280;77164;48.402;10.596;2024-03-23T06:51:42;95489.38;;;11.59;70.11
86523;BME280;77164;48.402;10.596;2024-03-23T06:54:08;95491.41;;;11.66;69.92
86523;BME280;77164;48.402;10.596;2024-03-23T06:56:35;95491.47;;;11.73;69.66
86523;BME280;77164;48.402;10.596;2024-03-23T06:59:01;95500.94;;;11.79;69.72
86523;BME280;77164;48.402;10.596;2024-03-23T07:01:28;95509.19;;;11.79;69.87
86523;BME280;77164;48.402;10.596;2024-03-23T07:03:57;95544.56;;;11.73;70.21
86523;BME280;77164;48.402;10.596;2024-03-23T07:06:23;95591.66;;;11.61;70.48
86523;BME280;77164;48.402;10.596;2024-03-23T07:09:22;95623.78;;;11.16;72.73
86523;BME280;77164;48.402;10.596;2024-03-23T07:11:57;95626.66;;;10.67;74.40
86523;BME280;77164;48.402;10.596;2024-03-23T07:14:24;95621.72;;;10.27;76.20
86523;BME280;77164;48.402;10.596;2024-03-23T07:16:51;95621.63;;;10.00;77.77
86523;BME280;77164;48.402;10.596;2024-03-23T07:19:18;95634.16;;;9.75;78.23
86523;BME280;77164;48.402;10.596;2024-03-23T07:21:45;95638.94;;;9.59;79.37
86523;BME280;77164;48.402;10.596;2024-03-23T07:24:12;95646.97;;;9.48;79.91
86523;BME280;77164;48.402;10.596;2024-03-23T07:26:39;95646.41;;;9.39;80.08
86523;BME280;77164;48.402;10.596;2024-03-23T07:29:07;95645.97;;;9.37;80.56
86523;BME280;77164;48.402;10.596;2024-03-23T07:31:34;95634.59;;;9.35;80.50
86523;BME280;77164;48.402;10.596;2024-03-23T07:34:00;95645.88;;;9.33;80.95
86523;BME280;77164;48.402;10.596;2024-03-23T07:36:27;95652.16;;;9.34;80.84
86523;BME280;77164;48.402;10.596;2024-03-23T07:38:54;95658.38;;;9.31;81.17
86523;BME280;77164;48.402;10.596;2024-03-23T07:41:21;95664.28;;;9.33;80.64
86523;BME280;77164;48.402;10.596;2024-03-23T07:43:48;95666.97;;;9.29;80.74
86523;BME280;77164;48.402;10.596;2024-03-23T07:46:24;95674.78;;;9.27;80.87
86523;BME280;77164;48.402;10.596;2024-03-23T07:48:55;95689.19;;;9.24;81.33
86523;BME280;77164;48.402;10.596;2024-03-23T07:51:27;95692.66;;;9.21;81.65
86523;BME280;77164;48.402;10.596;2024-03-23T07:53:54;95695.41;;;9.21;81.43
86523;BME280;77164;48.402;10.596;2024-03-23T07:56:21;95709.84;;;9.18;81.10
86523;BME280;77164;48.402;10.596;2024-03-23T07:58:49;95715.75;;;9.20;81.39
86523;BME280;77164;48.402;10.596;2024-03-23T08:01:17;95713.81;;;9.20;81.46
86523;BME280;77164;48.402;10.596;2024-03-23T08:03:46;95712.28;;;9.23;81.04
86523;BME280;77164;48.402;10.596;2024-03-23T08:08:45;95720.19;;;9.25;80.88
86523;BME280;77164;48.402;10.596;2024-03-23T08:11:12;95725.72;;;9.28;81.10
86523;BME280;77164;48.402;10.596;2024-03-23T08:13:41;95732.53;;;9.34;80.84
86523;BME280;77164;48.402;10.596;2024-03-23T08:16:08;95738.88;;;9.38;80.69
86523;BME280;77164;48.402;10.596;2024-03-23T08:18:35;95748.75;;;9.43;80.51
86523;BME280;77164;48.402;10.596;2024-03-23T08:21:04;95749.56;;;9.43;80.58
86523;BME280;77164;48.402;10.596;2024-03-23T08:23:33;95749.56;;;9.43;80.12
86523;BME280;77164;48.402;10.596;2024-03-23T08:26:11;95767.16;;;9.42;79.89
86523;BME280;77164;48.402;10.596;2024-03-23T08:28:38;95760.53;;;9.43;80.24
86523;BME280;77164;48.402;10.596;2024-03-23T08:31:09;95767.16;;;9.42;79.59
86523;BME280;77164;48.402;10.596;2024-03-23T08:33:37;95781.91;;;9.34;79.86
86523;BME280;77164;48.402;10.596;2024-03-23T08:36:09;95766.50;;;9.30;79.54
86523;BME280;77164;48.402;10.596;2024-03-23T08:38:49;95782.00;;;9.22;79.59
86523;BME280;77164;48.402;10.596;2024-03-23T08:41:25;95788.97;;;9.00;79.94
86523;BME280;77164;48.402;10.596;2024-03-23T08:43:52;95767.38;;;9.14;79.72
86523;BME280;77164;48.402;10.596;2024-03-23T08:46:19;95784.06;;;9.25;79.41
86523;BME280;77164;48.402;10.596;2024-03-23T08:48:47;95777.56;;;9.33;79.12
86523;BME280;77164;48.402;10.596;2024-03-23T08:51:16;95778.06;;;9.39;78.62
86523;BME280;77164;48.402;10.596;2024-03-23T08:53:43;95792.66;;;9.43;78.81
86523;BME280;77164;48.402;10.596;2024-03-23T08:56:10;95805.00;;;9.53;78.59
86523;BME280;77164;48.402;10.596;2024-03-23T08:58:38;95807.56;;;9.61;78.16
86523;BME280;77164;48.402;10.596;2024-03-23T09:01:12;95796.38;;;9.70;77.84
86523;BME280;77164;48.402;10.596;2024-03-23T09:03:42;95804.03;;;9.80;77.66
86523;BME280;77164;48.402;10.596;2024-03-23T09:06:12;95797.09;;;9.86;77.18
86523;BME280;77164;48.402;10.596;2024-03-23T09:08:39;95807.34;;;9.89;76.67
86523;BME280;77164;48.402;10.596;2024-03-23T09:11:08;95806.34;;;9.97;76.68
86523;BME280;77164;48.402;10.596;2024-03-23T09:13:38;95823.34;;;10.03;76.18
86523;BME280;77164;48.402;10.596;2024-03-23T09:16:06;95834.75;;;10.05;76.02
86523;BME280;77164;48.402;10.596;2024-03-23T09:18:35;95831.13;;;10.01;76.02
86523;BME280;77164;48.402;10.596;2024-03-23T09:21:03;95837.28;;;9.94;75.82
86523;BME280;77164;48.402;10.596;2024-03-23T09:23:29;95855.84;;;10.01;75.45
86523;BME280;77164;48.402;10.596;2024-03-23T09:25:56;95846.53;;;10.05;75.16
86523;BME280;77164;48.402;10.596;2024-03-23T09:28:23;95850.88;;;10.06;75.00
86523;BME280;77164;48.402;10.596;2024-03-23T09:30:53;95857.88;;;10.04;74.52
86523;BME280;77164;48.402;10.596;2024-03-23T09:33:20;95845.38;;;10.06;74.49
86523;BME280;77164;48.402;10.596;2024-03-23T09:35:46;95854.56;;;10.14;74.14
86523;BME280;77164;48.402;10.596;2024-03-23T09:38:36;95854.63;;;10.18;73.76
86523;BME280;77164;48.402;10.596;2024-03-23T09:41:35;95863.59;;;10.15;73.51
86523;BME280;77164;48.402;10.596;2024-03-23T09:44:02;95887.94;;;10.16;72.90
86523;BME280;77164;48.402;10.596;2024-03-23T09:46:29;95903.28;;;10.17;72.99
86523;BME280;77164;48.402;10.596;2024-03-23T09:48:56;95920.38;;;10.11;72.64
86523;BME280;77164;48.402;10.596;2024-03-23T09:51:24;95918.34;;;9.88;72.97
86523;BME280;77164;48.402;10.596;2024-03-23T09:53:50;95917.88;;;9.67;73.06
86523;BME280;77164;48.402;10.596;2024-03-23T09:56:22;95918.78;;;9.55;73.37
86523;BME280;77164;48.402;10.596;2024-03-23T09:59:03;95929.03;;;9.58;73.06
86523;BME280;77164;48.402;10.596;2024-03-23T10:01:30;95906.53;;;9.68;72.73
86523;BME280;77164;48.402;10.596;2024-03-23T10:03:57;95922.72;;;9.73;72.48
86523;BME280;77164;48.402;10.596;2024-03-23T10:06:24;95918.09;;;9.77;71.91
86523;BME280;77164;48.402;10.596;2024-03-23T10:08:59;95920.06;;;9.77;71.98
86523;BME280;77164;48.402;10.596;2024-03-23T10:11:26;95932.44;;;9.71;72.05
86523;BME280;77164;48.402;10.596;2024-03-23T10:13:54;95933.97;;;9.68;71.81
86523;BME280;77164;48.402;10.596;2024-03-23T10:16:23;95949.03;;;9.43;71.99
86523;BME280;77164;48.402;10.596;2024-03-23T10:18:53;95948.50;;;9.53;71.68
86523;BME280;77164;48.402;10.596;2024-03-23T10:21:23;95926.47;;;9.49;71.60
86523;BME280;77164;48.402;10.596;2024-03-23T10:23:50;95923.34;;;9.67;71.04
86523;BME280;77164;48.402;10.596;2024-03-23T10:26:30;95909.88;;;9.77;69.85
86523;BME280;77164;48.402;10.596;2024-03-23T10:29:04;95914.38;;;9.86;70.07
86523;BME280;77164;48.402;10.596;2024-03-23T10:31:39;95911.75;;;9.93;70.09
86523;BME280;77164;48.402;10.596;2024-03-23T10:34:07;95923.97;;;9.76;69.78
86523;BME280;77164;48.402;10.596;2024-03-23T10:36:48;95922.84;;;9.96;69.08
86523;BME280;77164;48.402;10.596;2024-03-23T10:39:15;95926.22;;;10.25;68.95
86523;BME280;77164;48.402;10.596;2024-03-23T10:41:53;95926.78;;;10.73;68.01
86523;BME280;77164;48.402;10.596;2024-03-23T10:44:23;95955.84;;;11.16;67.08
86523;BME280;77164;48.402;10.596;2024-03-23T10:46:56;95979.84;;;11.38;66.12
86523;BME280;77164;48.402;10.596;2024-03-23T10:49:29;95990.22;;;11.48;66.10
86523;BME280;77164;48.402;10.596;2024-03-23T10:52:01;95997.16;;;11.62;65.58
86523;BME280;77164;48.402;10.596;2024-03-23T10:54:31;95998.28;;;11.80;65.43
86523;BME280;77164;48.402;10.596;2024-03-23T10:57:15;95997.53;;;11.83;64.67
86523;BME280;77164;48.402;10.596;2024-03-23T10:59:44;95993.25;;;11.86;64.58
86523;BME280;77164;48.402;10.596;2024-03-23T11:02:33;95998.00;;;11.66;65.13
86523;BME280;77164;48.402;10.596;2024-03-23T11:04:59;95982.06;;;11.78;64.26
86523;BME280;77164;48.402;10.596;2024-03-23T11:07:33;95985.41;;;11.65;64.20
86523;BME280;77164;48.402;10.596;2024-03-23T11:10:00;95955.69;;;11.51;64.26
86523;BME280;77164;48.402;10.596;2024-03-23T11:12:29;95971.03;;;11.52;64.05
86523;BME280;77164;48.402;10.596;2024-03-23T11:15:05;95996.34;;;11.38;63.50
86523;BME280;77164;48.402;10.596;2024-03-23T11:17:37;96024.28;;;11.17;63.79
86523;BME280;77164;48.402;10.596;2024-03-23T11:20:05;96016.97;;;11.06;63.78
86523;BME280;77164;48.402;10.596;2024-03-23T11:22:38;96015.66;;;11.00;63.64
86523;BME280;77164;48.402;10.596;2024-03-23T11:25:19;96008.81;;;10.90;63.71
86523;BME280;77164;48.402;10.596;2024-03-23T11:27:52;95991.50;;;10.89;63.71
86523;BME280;77164;48.402;10.596;2024-03-23T11:30:44;95993.56;;;10.93;63.63
86523;BME280;77164;48.402;10.596;2024-03-23T11:33:13;96000.25;;;11.14;63.34
86523;BME280;77164;48.402;10.596;2024-03-23T11:35:44;96012.63;;;11.24;62.79
86523;BME280;77164;48.402;10.596;2024-03-23T11:38:16;96002.69;;;11.19;62.72
86523;BME280;77164;48.402;10.596;2024-03-23T11:40:48;95989.16;;;11.11;62.77
86523;BME280;77164;48.402;10.596;2024-03-23T11:43:17;95992.78;;;11.15;63.07
86523;BME280;77164;48.402;10.596;2024-03-23T11:45:48;95994.88;;;11.22;62.79
86523;BME280;77164;48.402;10.596;2024-03-23T11:48:20;95996.94;;;11.28;62.77
86523;BME280;77164;48.402;10.596;2024-03-23T11:50:48;95978.94;;;11.31;62.52
86523;BME280;77164;48.402;10.596;2024-03-23T11:53:23;95967.97;;;11.34;62.29
86523;BME280;77164;48.402;10.596;2024-03-23T11:55:58;95968.28;;;11.52;62.11
86523;BME280;77164;48.402;10.596;2024-03-23T11:58:26;95959.03;;;11.64;62.10
86523;BME280;77164;48.402;10.596;2024-03-23T12:01:09;95959.66;;;12.29;60.88
86523;BME280;77164;48.402;10.596;2024-03-23T12:03:49;95960.88;;;12.66;60.34
86523;BME280;77164;48.402;10.596;2024-03-23T12:06:22;95949.44;;;12.63;59.47
86523;BME280;77164;48.402;10.596;2024-03-23T12:09:06;95949.19;;;12.42;59.39
86523;BME280;77164;48.402;10.596;2024-03-23T12:11:40;95947.59;;;12.41;58.77
86523;BME280;77164;48.402;10.596;2024-03-23T12:14:27;95950.94;;;12.57;58.51
86523;BME280;77164;48.402;10.596;2024-03-23T12:17:12;95937.41;;;12.79;57.41
86523;BME280;77164;48.402;10.596;2024-03-23T12:19:58;95923.47;;;13.02;57.17
86523;BME280;77164;48.402;10.596;2024-03-23T12:22:26;95919.44;;;13.33;55.78
86523;BME280;77164;48.402;10.596;2024-03-23T12:24:53;95925.78;;;13.37;55.60
86523;BME280;77164;48.402;10.596;2024-03-23T12:27:23;95938.25;;;13.20;55.74
86523;BME280;77164;48.402;10.596;2024-03-23T12:29:50;95956.53;;;12.98;56.30
86523;BME280;77164;48.402;10.596;2024-03-23T12:32:24;95940.84;;;12.69;56.97
86523;BME280;77164;48.402;10.596;2024-03-23T12:34:51;95953.00;;;12.34;56.92
86523;BME280;77164;48.402;10.596;2024-03-23T12:37:27;95946.47;;;11.89;57.46
86523;BME280;77164;48.402;10.596;2024-03-23T12:39:54;95947.44;;;11.51;58.35
86523;BME280;77164;48.402;10.596;2024-03-23T12:42:21;95961.00;;;11.17;58.83
86523;BME280;77164;48.402;10.596;2024-03-23T12:44:47;95987.75;;;10.78;58.99
86523;BME280;77164;48.402;10.596;2024-03-23T12:47:20;96010.03;;;10.34;59.39
86523;BME280;77164;48.402;10.596;2024-03-23T12:49:48;96031.16;;;9.99;59.90
86523;BME280;77164;48.402;10.596;2024-03-23T12:52:17;96030.13;;;9.56;60.90
86523;BME280;77164;48.402;10.596;2024-03-23T12:54:47;96039.47;;;9.24;61.99
86523;BME280;77164;48.402;10.596;2024-03-23T12:57:20;96037.56;;;8.96;62.16
86523;BME280;77164;48.402;10.596;2024-03-23T12:59:48;96036.63;;;8.76;62.30
86523;BME280;77164;48.402;10.596;2024-03-23T13:02:19;96027.63;;;8.63;62.91
86523;BME280;77164;48.402;10.596;2024-03-23T13:04:50;96031.06;;;8.60;62.21
86523;BME280;77164;48.402;10.596;2024-03-23T13:07:24;96044.69;;;8.57;61.95
86523;BME280;77164;48.402;10.596;2024-03-23T13:09:52;96040.34;;;8.44;61.89
86523;BME280;77164;48.402;10.596;2024-03-23T13:12:23;96038.84;;;8.34;62.18
86523;BME280;77164;48.402;10.596;2024-03-23T13:14:49;96033.28;;;8.30;62.60
86523;BME280;77164;48.402;10.596;2024-03-23T13:17:16;96023.81;;;8.28;61.88
86523;BME280;77164;48.402;10.596;2024-03-23T13:19:43;96031.13;;;8.24;61.33
86523;BME280;77164;48.402;10.596;2024-03-23T13:22:10;96027.16;;;8.21;62.41
86523;BME280;77164;48.402;10.596;2024-03-23T13:24:38;96028.03;;;8.25;61.77
86523;BME280;77164;48.402;10.596;2024-03-23T13:27:05;96021.63;;;8.33;61.87
86523;BME280;77164;48.402;10.596;2024-03-23T13:29:34;96024.28;;;8.42;61.96
86523;BME280;77164;48.402;10.596;2024-03-23T13:32:02;96019.72;;;8.46;61.11
86523;BME280;77164;48.402;10.596;2024-03-23T13:34:29;96013.63;;;8.53;61.96
86523;BME280;77164;48.402;10.596;2024-03-23T13:36:56;96019.00;;;8.49;61.91
86523;BME280;77164;48.402;10.596;2024-03-23T13:39:32;96002.81;;;8.44;61.49
86523;BME280;77164;48.402;10.596;2024-03-23T13:41:58;96004.56;;;8.37;61.18
86523;BME280;77164;48.402;10.596;2024-03-23T13:44:25;96006.34;;;8.32;61.58
86523;BME280;77164;48.402;10.596;2024-03-23T13:46:52;95994.16;;;8.30;61.06
86523;BME280;77164;48.402;10.596;2024-03-23T13:49:26;95989.81;;;8.29;60.72
86523;BME280;77164;48.402;10.596;2024-03-23T13:51:57;95988.44;;;8.35;60.84
86523;BME280;77164;48.402;10.596;2024-03-23T13:54:28;95977.00;;;8.45;61.04
86523;BME280;77164;48.402;10.596;2024-03-23T13:56:55;95972.28;;;8.58;60.81
86523;BME280;77164;48.402;10.596;2024-03-23T13:59:22;95974.38;;;8.77;60.17
86523;BME280;77164;48.402;10.596;2024-03-23T14:01:52;95983.88;;;8.95;60.28